Flight Track Log - Related Links

Times and Time Zones

All times are in EDT time to prevent confusion due to time zone crossing. See the N775NC flight status page for this flight to view local times or setup timezone preferences in your user account.

Time Position Orientation Groundspeed Altitude Reporting Facility
EDT Latitude Longitude Course Direction KTS MPH feet Rate Location/Type
Tue 03:43:56 PM 33.6500 -84.3667 273° West 204 235 2,300  Level Atlanta TRACON
Tue 03:44:57 PM 33.6833 -84.2833 64° Northeast 257 296 5,200 2,628 Climbing Atlanta TRACON
Tue 03:45:57 PM 33.7500 -84.2667 12° North 277 319 7,600 1,737 Climbing Atlanta TRACON
Tue 03:46:00 PM 33.6254 -84.9000 259° West  Level Estimated
Tue 03:47:00 PM 33.6223 -85.0180 261° West  Level Estimated
Tue 03:48:00 PM 33.6283 -85.1358 274° West  Level FlightAware Approximate
Tue 03:48:07 PM 33.8103 -84.4389 293° West 270 311 10,700  Level Atlanta Center
Tue 03:49:00 PM 33.6342 -85.2537 273° West  Level FlightAware Approximate
Tue 03:49:07 PM 33.7953 -84.5739 262° West 328 377 12,900  Level Atlanta Center
Tue 03:50:07 PM 33.7842 -84.6836 263° West 361 415 15,100 1,850 Climbing Atlanta Center
Tue 03:51:07 PM 33.7753 -84.8061 265° West 367 422 16,600 1,550 Climbing Atlanta Center
Tue 03:52:07 PM 33.7533 -84.9483 260° West 389 448 18,200 1,500 Climbing Atlanta Center
Tue 03:53:07 PM 33.7128 -85.0678 248° West 394 453 19,600 900 Climbing Atlanta Center
Tue 03:54:07 PM 33.6864 -85.2022 257° West 405 466 20,000 200 Climbing Atlanta Center
Tue 03:55:07 PM 33.6706 -85.3442 262° West 423 487 20,000  Level Atlanta Center
Tue 03:56:07 PM 33.6628 -85.4714 266° West 429 494 20,000 -950 Level Atlanta Center
Tue 03:57:07 PM 33.6547 -85.6136 266° West 429 494 18,100 -2,350 Descending Atlanta Center
Tue 03:58:07 PM 33.6300 -85.7453 257° West 422 486 15,300 -3,073 Descending Atlanta Center
Tue 03:58:29 PM 33.6106 -85.8072 249° West 394 453 13,900 -3,000 Descending Atlanta Center
Tue 03:58:59 PM 33.5969 -85.8644 254° West 393 452 12,700 -1,737 Descending Atlanta Center
Tue 03:59:07 PM 33.5969 -85.8669 270° West 402 463 12,800 -1,770 Climbing Atlanta Center
Tue 04:00:00 PM 33.5764 -85.9886 259° West 379 436 10,900 -1,900 Descending Atlanta Center
Tue 04:00:07 PM 33.5761 -86.0036 269° West 391 450 10,900 90 Level Atlanta Center
Tue 04:01:07 PM 33.5700 -86.1306 267° West 385 443 11,000  Climbing Atlanta Center
Tue 04:02:01 PM 33.5678 -86.2503 269° West 380 437 10,900 -100 Descending Atlanta Center
Tue 04:02:07 PM 33.5697 -86.2553 295° West 385 443 10,900 -818 Level Atlanta Center
Tue 04:03:07 PM 33.5719 -86.3650 271° West 362 417 10,000 -1,200 Descending Atlanta Center
Tue 04:04:02 PM 33.5703 -86.4522 269° West 269 310 8,600 -1,100 Descending Atlanta Center
Tue 04:04:07 PM 33.5744 -86.4472 45° Northeast 315 362 8,900 -1,477 Climbing Atlanta Center
Tue 04:05:07 PM 33.5581 -86.5392 258° West 295 339 7,000 -1,700 Descending Atlanta Center
Tue 04:06:07 PM 33.5417 -86.6258 257° West 284 327 5,500 -1,050 Descending Atlanta Center
Tue 04:07:07 PM 33.5128 -86.7022 246° West 261 300 4,900 -1,050 Descending Atlanta Center
Tue 04:08:07 PM 33.4803 -86.7686 240° Southwest 248 285 3,400 -1,286 Descending Atlanta Center
Tue 04:08:59 PM 33.4664 -86.8228 253° West 146 168 2,500 -796 Descending Atlanta Center
Tue 04:10:00 PM 33.5100 -86.8317 350° North 164 189 1,900 -689 Descending Atlanta Center
Tue 04:11:01 PM 33.5381 -86.7978 45° Northeast 144 166 1,100 -787 Descending Atlanta Center

Login

Don't have an account? Register now (free) for customized features, flight alerts, and more!